Thunder radar more information blitzortung!


Löydät sääaseman tiedot myös:

European Weather Network

Finland Weather Exchange

Weather Underground

AWEKAS



Weather Underground säähistoriasivu

Päivittäin yhteenveto Helmikuu 13, 2017 Yksiköt:  Englantilaiset    Metriset   Molemmat
« Edellinen Päivä
Seuraava Päivä »
Päivittäin Viikoittain Kuukausittain Vuosittain Mukautettu
  Korkea: Matala: Keskiarvo:
Lämpötila: TemperatureC °F 0.4 °F 3.7 °F
Kastepiste: DewpointC °F -1.0 °F 1.3 °F
Kosteus: Humidity % 79 % 84 %
Tuulen nopeus: WindSpeedKMH mph 1.6 mph 5.5 mph
Tuulenpuuska: WindSpeedGustKMH mph - -
Tuuli:- - WSW
Ilmanpaine: PressurehPa in 1020.5 in -
Sade: 0.5 in    
Historical Graphs
 
 
Taulukkotiedot Helmikuu 13, 2017
Aika Lämpötila Kastepiste Ilmanpaine Tuuli Tuulen nopeus Tuulenpuuska Kosteus Sademäärä (tunneittain)
TemperatureC °F DewpointC °F PressurehPa in Calm     Humidity % HourlyPrecipMM in
00:00 0.4 °F -0.9 °F 1024.3 in SSW 8.0 mph 25.7 mph 91 % 0.0 in
00:15 0.4 °F -1.0 °F 1024.3 in SSW 6.4 mph 19.3 mph 90 % 0.0 in
00:30 0.5 °F -1.0 °F 1024.3 in SSW 6.4 mph 14.5 mph 90 % 0.0 in
00:45 0.7 °F -0.8 °F 1023.9 in SSW 8.0 mph 19.3 mph 90 % 0.0 in
01:15 1.1 °F -0.7 °F 1023.6 in SSW 6.4 mph 14.5 mph 88 % 0.0 in
01:30 1.3 °F -0.6 °F 1023.2 in SSW 6.4 mph 14.5 mph 87 % 0.0 in
01:45 1.6 °F -0.5 °F 1022.6 in SSW 8.0 mph 24.1 mph 86 % 0.0 in
02:00 1.7 °F -0.6 °F 1022.9 in SSW 4.8 mph 17.7 mph 85 % 0.0 in
02:15 1.8 °F -0.5 °F 1022.9 in SW 6.4 mph 19.3 mph 85 % 0.0 in
02:30 1.8 °F -0.4 °F 1022.6 in SSW 6.4 mph 14.5 mph 85 % 0.0 in
02:45 1.8 °F -0.5 °F 1022.6 in SSW 4.8 mph 9.7 mph 85 % 0.0 in
03:00 1.8 °F -0.4 °F 1022.6 in SSW 6.4 mph 17.7 mph 85 % 0.0 in
03:15 1.7 °F -0.5 °F 1022.2 in SSW 4.8 mph 12.9 mph 85 % 0.0 in
03:30 1.7 °F -0.6 °F 1022.2 in SW 6.4 mph 14.5 mph 85 % 0.0 in
03:45 1.7 °F -0.4 °F 1022.2 in SW 6.4 mph 16.1 mph 86 % 0.0 in
04:00 1.8 °F -0.3 °F 1021.9 in WSW 8.0 mph 20.9 mph 86 % 0.0 in
04:15 1.9 °F -0.2 °F 1021.6 in WSW 8.0 mph 22.5 mph 86 % 0.0 in
04:30 2.1 °F 0.0 °F 1022.2 in WSW 6.4 mph 19.3 mph 86 % 0.0 in
04:45 2.0 °F -0.1 °F 1022.2 in WSW 6.4 mph 22.5 mph 86 % 0.0 in
05:00 1.9 °F 0.0 °F 1022.2 in WSW 6.4 mph 16.1 mph 87 % 0.0 in
05:15 2.0 °F 0.1 °F 1021.9 in SW 6.4 mph 14.5 mph 87 % 0.0 in
05:30 2.0 °F 0.2 °F 1022.2 in WSW 6.4 mph 17.7 mph 88 % 0.0 in
05:45 2.0 °F 0.1 °F 1022.2 in SW 6.4 mph 19.3 mph 87 % 0.0 in
06:00 1.9 °F 0.1 °F 1022.2 in SW 4.8 mph 16.1 mph 88 % 0.0 in
06:15 1.8 °F 0.2 °F 1022.2 in WSW 4.8 mph 12.9 mph 89 % 0.0 in
06:30 1.8 °F 0.2 °F 1021.9 in SW 6.4 mph 14.5 mph 89 % 0.0 in
06:45 2.0 °F 0.4 °F 1021.9 in SW 6.4 mph 14.5 mph 89 % 0.0 in
07:15 2.1 °F 0.6 °F 1021.9 in WSW 4.8 mph 16.1 mph 90 % 0.0 in
07:45 2.6 °F 0.9 °F 1022.2 in WSW 6.4 mph 16.1 mph 89 % 0.0 in
08:00 2.7 °F 1.1 °F 1022.2 in WSW 6.4 mph 14.5 mph 89 % 0.0 in
08:15 2.7 °F 1.1 °F 1022.2 in SW 6.4 mph 20.9 mph 89 % 0.0 in
08:30 2.7 °F 1.1 °F 1022.2 in WSW 6.4 mph 17.7 mph 89 % 0.0 in
08:45 2.6 °F 1.0 °F 1022.2 in WSW 6.4 mph 19.3 mph 89 % 0.0 in
09:00 2.7 °F 1.2 °F 1022.2 in WSW 6.4 mph 22.5 mph 90 % 0.0 in
09:15 2.9 °F 1.5 °F 1021.9 in SW 6.4 mph 17.7 mph 90 % 0.0 in
09:45 3.1 °F 1.6 °F 1021.9 in SW 4.8 mph 14.5 mph 90 % 0.0 in
10:00 3.5 °F 1.9 °F 1021.9 in WSW 3.2 mph 17.7 mph 89 % 0.0 in
10:15 4.0 °F 2.2 °F 1022.2 in WSW 4.8 mph 12.9 mph 88 % 0.0 in
10:30 4.1 °F 2.1 °F 1021.9 in SW 4.8 mph 14.5 mph 87 % 0.0 in
10:45 4.3 °F 2.4 °F 1022.2 in SW 4.8 mph 17.7 mph 87 % 0.0 in
11:00 4.5 °F 2.4 °F 1021.9 in WSW 4.8 mph 16.1 mph 86 % 0.0 in
11:15 4.8 °F 2.5 °F 1022.2 in SW 6.4 mph 12.9 mph 85 % 0.0 in
11:30 5.1 °F 2.7 °F 1022.2 in SSW 6.4 mph 22.5 mph 85 % 0.0 in
11:45 5.3 °F 2.8 °F 1022.2 in SSW 4.8 mph 14.5 mph 84 % 0.3 in
12:00 5.6 °F 2.9 °F 1022.2 in SW 4.8 mph 14.5 mph 83 % 0.3 in
12:15 5.8 °F 2.9 °F 1021.9 in SW 3.2 mph 11.3 mph 82 % 0.3 in
12:30 5.8 °F 2.8 °F 1021.9 in SW 4.8 mph 14.5 mph 81 % 0.3 in
12:45 5.7 °F 2.7 °F 1021.9 in SW 4.8 mph 14.5 mph 81 % 0.0 in
13:00 5.7 °F 2.7 °F 1021.9 in SW 4.8 mph 19.3 mph 81 % 0.0 in
13:15 5.8 °F 2.8 °F 1021.9 in WSW 6.4 mph 37.0 mph 81 % 0.0 in
13:30 5.8 °F 2.8 °F 1021.9 in WSW 6.4 mph 17.7 mph 81 % 0.0 in
13:45 5.8 °F 2.8 °F 1021.9 in WSW 8.0 mph 25.7 mph 81 % 0.0 in
14:15 5.7 °F 2.7 °F 1022.2 in WSW 4.8 mph 17.7 mph 81 % 0.3 in
14:30 5.6 °F 2.6 °F 1021.9 in WSW 4.8 mph 14.5 mph 81 % 0.3 in
14:45 5.5 °F 2.3 °F 1021.9 in West 4.8 mph 14.5 mph 80 % 0.3 in
15:00 5.3 °F 2.3 °F 1021.9 in WSW 4.8 mph 14.5 mph 81 % 0.3 in
15:15 5.2 °F 2.2 °F 1021.6 in SW 4.8 mph 19.3 mph 81 % 0.0 in
15:30 5.4 °F 2.4 °F 1021.6 in WSW 3.2 mph 12.9 mph 81 % 0.0 in
15:45 5.9 °F 2.6 °F 1021.6 in SW 1.6 mph 12.9 mph 79 % 0.0 in
16:00 5.8 °F 2.5 °F 1021.6 in SSW 3.2 mph 11.3 mph 79 % 0.0 in
16:15 5.6 °F 2.3 °F 1021.6 in SW 4.8 mph 12.9 mph 79 % 0.0 in
16:30 5.3 °F 2.2 °F 1021.2 in SW 3.2 mph 14.5 mph 80 % 0.0 in
17:00 4.7 °F 1.9 °F 1021.2 in SSW 3.2 mph 9.7 mph 82 % 0.0 in
17:15 4.5 °F 1.9 °F 1020.9 in SSW 3.2 mph 9.7 mph 83 % 0.0 in
17:45 4.4 °F 1.9 °F 1020.9 in SW 4.8 mph 12.9 mph 84 % 0.0 in
18:00 4.6 °F 1.9 °F 1020.9 in SW 4.8 mph 16.1 mph 83 % 0.0 in
18:15 4.6 °F 2.0 °F 1020.5 in WSW 4.8 mph 12.9 mph 83 % 0.0 in
18:30 4.7 °F 1.9 °F 1020.9 in WSW 4.8 mph 16.1 mph 82 % 0.0 in
19:00 4.9 °F 2.0 °F 1020.9 in West 6.4 mph 20.9 mph 81 % 0.0 in
19:15 5.0 °F 2.0 °F 1020.9 in West 6.4 mph 20.9 mph 81 % 0.0 in
19:30 4.9 °F 1.9 °F 1020.9 in West 4.8 mph 16.1 mph 81 % 0.0 in
19:45 4.6 °F 1.7 °F 1020.9 in West 4.8 mph 20.9 mph 82 % 0.0 in
20:00 4.8 °F 2.0 °F 1020.9 in WNW 6.4 mph 22.5 mph 82 % 0.0 in
20:15 4.8 °F 2.0 °F 1020.9 in WNW 4.8 mph 19.3 mph 82 % 0.0 in
20:30 4.8 °F 2.0 °F 1021.2 in West 6.4 mph 20.9 mph 82 % 0.0 in
20:45 4.7 °F 1.9 °F 1020.9 in WNW 8.0 mph 20.9 mph 82 % 0.0 in
21:00 4.7 °F 1.9 °F 1020.9 in West 8.0 mph 22.5 mph 82 % 0.0 in
21:15 4.7 °F 2.0 °F 1020.9 in West 8.0 mph 22.5 mph 83 % 0.0 in
21:45 4.6 °F 1.9 °F 1020.9 in WNW 4.8 mph 11.3 mph 83 % 0.0 in
22:00 4.7 °F 2.0 °F 1021.2 in WNW 6.4 mph 25.7 mph 83 % 0.0 in
22:15 4.8 °F 2.0 °F 1021.2 in NW 4.8 mph 14.5 mph 82 % 0.0 in
22:30 5.1 °F 2.2 °F 1021.2 in NW 4.8 mph 19.3 mph 82 % 0.0 in
22:45 5.1 °F 2.1 °F 1021.2 in NW 6.4 mph 14.5 mph 81 % 0.0 in
23:15 4.9 °F 2.1 °F 1021.6 in West 1.6 mph 16.1 mph 82 % 0.0 in
23:30 5.2 °F 2.2 °F 1021.6 in WNW 4.8 mph 14.5 mph 81 % 0.0 in
23:45 5.4 °F 2.2 °F 1021.6 in NW 4.8 mph 14.5 mph 80 % 0.0 in
Esan sääasema
Terveisin Weather Underground - 2.75 mb

Alkuperäinen skripti  Jim McMurry - jmcmurry@mwt.net Sovitettu myös templatelle  Wim van der Kuil - Leuven-Template.eu

Laitteet joita käytämme:

Sääasema
Davis VP2

Sääasemaohjelma
Cumulus

Sääaseman tietokone
Asus EeePC

Palveluntarjoaja
Suncomet

Davis VP2

Cumulus

Asus EeePC

Suncomet